Time;durP1;ratioP1;P1;durP2;ratioP2;P2;SDS_P1;SDS_P2;PMS_P1;PMS_P2;Temp;Humidity;BMP_temperature;BMP_pressure;BME280_temperature;BME280_humidity;BME280_pressure;Samples;Min_cycle;Max_cycle;Signal;HPM_P1;HPM_P2
2023/04/09 00:01:12;;;;;;;28.40;21.52;;;10.00;99.90;;;;;;5050270;28;20416;-70
2023/04/09 00:04:16;;;;;;;28.50;21.05;;;9.70;99.90;;;;;;5050644;28;20044;-70
2023/04/09 00:07:20;;;;;;;26.27;20.38;;;9.30;99.90;;;;;;5050552;28;20524;-70
2023/04/09 00:10:24;;;;;;;27.45;20.83;;;9.50;99.90;;;;;;5050709;28;20040;-70
2023/04/09 00:13:28;;;;;;;25.63;19.88;;;9.70;99.90;;;;;;5050185;28;20064;-70
2023/04/09 00:16:32;;;;;;;27.17;20.80;;;9.70;99.90;;;;;;5050642;28;20048;-70
2023/04/09 00:19:36;;;;;;;25.77;20.65;;;9.80;99.90;;;;;;5050852;28;20037;-70
2023/04/09 00:22:40;;;;;;;26.90;21.40;;;8.90;99.90;;;;;;5049860;28;20047;-70
2023/04/09 00:25:44;;;;;;;25.20;20.70;;;9.70;99.90;;;;;;5050262;28;20128;-70
2023/04/09 00:28:47;;;;;;;24.08;20.75;;;9.70;99.90;;;;;;5050885;28;20060;-70
2023/04/09 00:31:51;;;;;;;25.63;21.50;;;10.30;99.90;;;;;;5050766;28;20036;-70
2023/04/09 00:35:16;;;;;;;28.80;21.45;;;;;;;;;;5049713;28;20393;-70
2023/04/09 00:38:20;;;;;;;27.10;21.55;;;10.50;99.90;;;;;;5050545;28;20060;-70
2023/04/09 00:41:24;;;;;;;29.40;22.63;;;9.20;99.90;;;;;;5050260;28;20044;-70
2023/04/09 00:44:28;;;;;;;27.13;20.92;;;9.50;99.90;;;;;;5053528;28;20044;-70
2023/04/09 00:47:33;;;;;;;30.73;22.15;;;9.60;99.90;;;;;;5054164;28;20048;-70
2023/04/09 00:50:37;;;;;;;34.28;24.67;;;9.90;99.90;;;;;;5042074;28;20040;-70
2023/04/09 00:53:42;;;;;;;29.70;23.75;;;7.70;99.90;;;;;;5054226;28;20048;-70
2023/04/09 00:56:46;;;;;;;29.55;22.30;;;11.60;99.90;;;;;;5054549;28;20044;-70
2023/04/09 00:59:51;;;;;;;31.55;22.58;;;9.50;99.90;;;;;;5054496;28;20048;-70
2023/04/09 01:02:57;;;;;;;29.40;22.05;;;9.50;99.90;;;;;;5054115;28;20111;-70
2023/04/09 01:06:21;;;;;;;28.60;22.05;;;10.50;99.90;;;;;;5053260;28;20052;-70
2023/04/09 01:09:41;;;;;;;27.58;21.38;;;9.50;99.90;;;;;;5054234;28;20397;-70
2023/04/09 01:13:16;;;;;;;35.00;23.65;;;9.40;99.90;;;;;;5053036;28;20039;-70
2023/04/09 01:16:23;;;;;;;36.97;24.38;;;9.30;99.90;;;;;;5053376;28;20044;-70
2023/04/09 01:19:47;;;;;;;30.25;22.92;;;9.40;99.90;;;;;;5053129;28;20036;-71
2023/04/09 01:23:09;;;;;;;28.70;22.08;;;9.30;99.90;;;;;;5054050;28;20051;-70
2023/04/09 01:26:58;;;;;;;34.65;24.67;;;9.50;99.90;;;;;;5052783;28;20048;-70
2023/04/09 01:30:08;;;;;;;31.17;23.35;;;10.10;99.90;;;;;;5049575;28;20040;-70
2023/04/09 01:33:15;;;;;;;34.47;23.52;;;9.30;99.90;;;;;;5053931;28;20048;-70
2023/04/09 01:36:21;;;;;;;33.08;24.17;;;9.30;99.90;;;;;;5053110;28;20048;-70
2023/04/09 01:39:26;;;;;;;30.42;23.73;;;9.40;99.90;;;;;;5053496;28;20416;-70
2023/04/09 01:42:31;;;;;;;33.05;24.17;;;9.20;99.90;;;;;;5052943;28;20048;-70
2023/04/09 01:45:34;;;;;;;47.45;27.25;;;9.50;99.90;;;;;;5053296;28;20040;-70
2023/04/09 01:48:39;;;;;;;35.92;24.85;;;9.30;99.90;;;;;;5053031;28;20060;-70
2023/04/09 01:51:43;;;;;;;36.30;26.30;;;9.30;99.90;;;;;;5053454;28;20044;-70
2023/04/09 01:54:47;;;;;;;36.92;24.75;;;9.30;99.90;;;;;;5052979;28;20044;-70
2023/04/09 01:57:51;;;;;;;28.88;21.58;;;9.30;99.90;;;;;;5052363;28;20043;-70
2023/04/09 02:01:30;;;;;;;26.95;21.02;;;7.80;99.90;;;;;;5053061;28;20043;-70
2023/04/09 02:04:39;;;;;;;23.58;17.98;;;9.40;99.90;;;;;;5052553;28;20032;-70
2023/04/09 02:07:47;;;;;;;23.00;17.92;;;9.20;99.90;;;;;;5052723;28;20056;-70
2023/04/09 02:10:55;;;;;;;21.00;17.40;;;9.60;99.90;;;;;;5052901;28;20040;-70
2023/04/09 02:14:02;;;;;;;25.95;20.13;;;8.90;99.90;;;;;;5053142;28;20397;-70
2023/04/09 02:17:06;;;;;;;23.63;18.70;;;8.80;99.90;;;;;;5051893;28;20133;-70
2023/04/09 02:20:11;;;;;;;25.27;19.63;;;9.40;99.90;;;;;;5052605;28;20048;-70
2023/04/09 02:23:15;;;;;;;22.35;18.90;;;9.60;99.90;;;;;;5052935;28;20492;-70
2023/04/09 02:26:19;;;;;;;27.35;19.98;;;8.90;99.90;;;;;;5052256;28;20052;-70
2023/04/09 02:29:23;;;;;;;27.10;20.42;;;8.80;99.90;;;;;;5051816;28;20523;-70
2023/04/09 02:32:27;;;;;;;25.20;20.20;;;8.70;99.90;;;;;;5052355;28;20044;-70
2023/04/09 02:35:31;;;;;;;22.75;18.65;;;8.90;99.90;;;;;;5052402;28;20377;-70
2023/04/09 02:38:35;;;;;;;23.75;18.70;;;8.80;99.90;;;;;;5052402;28;20139;-70
2023/04/09 02:41:39;;;;;;;25.40;19.23;;;8.80;99.90;;;;;;5051993;28;20040;-70
2023/04/09 02:44:43;;;;;;;27.58;19.88;;;8.70;99.90;;;;;;5052318;28;20043;-70
2023/04/09 02:47:49;;;;;;;23.17;19.20;;;9.50;99.90;;;;;;5051195;28;20052;-70
2023/04/09 02:50:53;;;;;;;28.33;20.40;;;8.50;99.90;;;;;;5050963;28;20504;-70
2023/04/09 02:53:57;;;;;;;25.27;19.55;;;9.40;99.90;;;;;;5039640;28;20500;-70
2023/04/09 02:57:01;;;;;;;30.38;19.75;;;9.80;99.90;;;;;;5050944;28;20047;-70
2023/04/09 03:00:06;;;;;;;22.67;18.38;;;8.70;99.90;;;;;;5050836;28;20036;-70
2023/04/09 03:03:10;;;;;;;25.05;18.67;;;9.60;99.90;;;;;;5051532;28;20412;-70
2023/04/09 03:06:13;;;;;;;20.80;17.00;;;9.10;99.90;;;;;;5050020;28;20040;-70
2023/04/09 03:09:17;;;;;;;20.77;16.17;;;9.20;99.90;;;;;;5050744;28;20047;-69
2023/04/09 03:12:22;;;;;;;25.25;16.50;;;;;;;;;;5050834;28;20044;-70
2023/04/09 03:15:26;;;;;;;23.17;16.73;;;8.40;99.90;;;;;;5050923;28;20048;-70
2023/04/09 03:18:30;;;;;;;23.88;17.30;;;;;;;;;;5051557;28;20043;-70
2023/04/09 03:21:34;;;;;;;23.38;17.63;;;8.40;99.90;;;;;;5050758;28;20047;-70
2023/04/09 03:24:38;;;;;;;20.30;15.95;;;;;;;;;;5050524;28;20492;-69
2023/04/09 03:27:43;;;;;;;20.80;15.85;;;;;;;;;;5050654;28;20048;-70
2023/04/09 03:30:49;;;;;;;17.98;13.23;;;9.80;99.90;;;;;;5050425;28;20059;-70
2023/04/09 03:33:53;;;;;;;16.15;11.55;;;9.90;99.90;;;;;;5050433;28;20048;-70
2023/04/09 03:36:57;;;;;;;17.52;12.27;;;7.50;99.90;;;;;;5050499;28;20035;-70
2023/04/09 03:40:06;;;;;;;15.75;12.82;;;8.70;99.90;;;;;;5050623;28;20048;-69
2023/04/09 03:43:10;;;;;;;18.38;13.77;;;9.40;99.90;;;;;;5050345;28;20492;-70
2023/04/09 03:46:17;;;;;;;19.60;14.65;;;8.50;99.90;;;;;;5039048;28;20048;-70
2023/04/09 03:49:24;;;;;;;20.17;14.77;;;8.40;99.90;;;;;;5050356;28;20048;-70
2023/04/09 03:52:30;;;;;;;19.50;15.73;;;;;;;;;;5050465;28;20405;-70
2023/04/09 03:55:43;;;;;;;25.13;16.92;;;8.50;99.90;;;;;;5050379;28;20067;-70
2023/04/09 03:58:54;;;;;;;22.58;16.20;;;8.40;99.90;;;;;;5050268;28;20047;-70
2023/04/09 04:02:03;;;;;;;22.80;16.05;;;8.40;99.90;;;;;;5050143;28;20052;-70
2023/04/09 04:05:10;;;;;;;26.90;17.50;;;9.60;99.90;;;;;;5049972;28;20484;-70
2023/04/09 04:08:21;;;;;;;20.58;15.63;;;8.90;99.90;;;;;;5049981;28;20516;-70
2023/04/09 04:11:25;;;;;;;22.20;16.52;;;8.60;99.90;;;;;;5050022;28;20040;-70
2023/04/09 04:14:32;;;;;;;19.33;16.15;;;7.90;99.90;;;;;;5049877;28;20047;-70
2023/04/09 04:17:43;;;;;;;18.83;14.40;;;8.30;99.90;;;;;;5049647;28;20044;-70
2023/04/09 04:21:11;;;;;;;21.45;14.63;;;9.50;99.90;;;;;;5049974;28;20052;-70
2023/04/09 04:24:16;;;;;;;19.77;13.93;;;9.10;99.90;;;;;;5049917;28;20032;-70
2023/04/09 04:27:20;;;;;;;16.15;12.98;;;5.90;99.90;;;;;;5049740;28;20052;-70
2023/04/09 04:30:25;;;;;;;15.65;12.82;;;;;;;;;;5050578;28;20512;-70
2023/04/09 04:33:43;;;;;;;17.67;12.73;;;;;;;;;;5049465;28;20040;-70
2023/04/09 04:36:51;;;;;;;18.15;12.70;;;;;;;;;;5049867;28;20052;-70
2023/04/09 04:39:55;;;;;;;16.65;12.45;;;7.90;99.90;;;;;;5050393;28;20040;-70
2023/04/09 04:43:00;;;;;;;17.63;13.55;;;;;;;;;;5049818;28;20055;-70
2023/04/09 04:46:05;;;;;;;16.63;11.60;;;9.30;99.90;;;;;;5049440;28;20120;-70
2023/04/09 04:49:10;;;;;;;18.10;12.48;;;;;;;;;;5049653;28;20056;-70
2023/04/09 04:52:22;;;;;;;13.88;11.10;;;;;;;;;;5049440;28;20028;-70
2023/04/09 04:55:29;;;;;;;14.00;10.88;;;7.50;99.90;;;;;;5049679;28;20044;-70
2023/04/09 04:58:34;;;;;;;14.77;11.63;;;6.80;99.90;;;;;;5049570;28;20044;-70
2023/04/09 05:01:40;;;;;;;18.92;12.15;;;;;;;;;;5049505;28;20519;-70
2023/04/09 05:04:48;;;;;;;16.33;13.05;;;;;;;;;;5049463;28;20604;-70
2023/04/09 05:07:55;;;;;;;18.45;12.85;;;7.70;99.90;;;;;;5049274;28;20048;-70
2023/04/09 05:10:59;;;;;;;16.38;12.63;;;8.90;99.90;;;;;;5037884;28;20044;-70
2023/04/09 05:14:11;;;;;;;18.88;13.40;;;8.60;99.90;;;;;;5049396;28;20048;-70
2023/04/09 05:17:16;;;;;;;19.13;14.95;;;8.80;99.90;;;;;;5049528;28;20044;-70
2023/04/09 05:20:22;;;;;;;18.85;13.93;;;8.20;99.90;;;;;;5049175;28;20393;-70
2023/04/09 05:23:39;;;;;;;23.30;15.25;;;9.20;99.90;;;;;;5049164;28;20044;-70
2023/04/09 05:26:43;;;;;;;17.55;13.10;;;9.90;99.90;;;;;;5050017;28;20405;-70
2023/04/09 05:29:48;;;;;;;20.63;12.90;;;8.80;99.90;;;;;;5053405;28;20064;-70
2023/04/09 05:32:51;;;;;;;16.20;11.77;;;10.30;99.90;;;;;;5052842;28;20052;-70
2023/04/09 05:35:55;;;;;;;15.20;11.25;;;11.60;99.90;;;;;;5053835;28;20052;-70
2023/04/09 05:38:59;;;;;;;16.40;10.93;;;11.40;99.90;;;;;;5052960;28;20044;-71
2023/04/09 05:42:03;;;;;;;15.45;11.05;;;12.10;98.90;;;;;;5052669;28;20048;-70
2023/04/09 05:45:37;;;;;;;20.02;12.38;;;12.80;97.60;;;;;;5053538;28;20036;-70
2023/04/09 05:48:41;;;;;;;21.63;12.90;;;;;;;;;;5053294;28;20052;-70
2023/04/09 05:51:46;;;;;;;19.38;13.68;;;;;;;;;;5052523;28;20519;-70
2023/04/09 05:54:54;;;;;;;22.35;14.38;;;15.20;95.40;;;;;;5052442;28;20039;-71
2023/04/09 05:58:04;;;;;;;21.92;14.77;;;14.50;94.30;;;;;;5053120;28;20048;-70
2023/04/09 06:01:10;;;;;;;13.35;10.95;;;14.50;94.60;;;;;;5052449;28;20044;-71
2023/04/09 06:04:14;;;;;;;15.93;11.40;;;14.80;93.70;;;;;;5052215;28;20516;-71
2023/04/09 06:07:18;;;;;;;11.40;8.63;;;14.70;94.10;;;;;;5052234;28;20067;-71
2023/04/09 06:10:23;;;;;;;12.30;8.82;;;14.60;94.00;;;;;;5052347;28;20052;-71
2023/04/09 06:13:27;;;;;;;10.35;8.10;;;14.40;93.50;;;;;;5052769;28;20523;-71
2023/04/09 06:16:32;;;;;;;11.80;8.15;;;14.30;93.80;;;;;;5052630;28;20044;-71
2023/04/09 06:19:36;;;;;;;8.55;7.13;;;14.40;93.80;;;;;;5052869;28;20508;-71
2023/04/09 06:22:40;;;;;;;9.80;6.95;;;14.80;93.90;;;;;;5052801;28;20047;-71
2023/04/09 06:25:44;;;;;;;8.60;6.43;;;15.10;93.00;;;;;;5052540;28;20060;-71
2023/04/09 06:28:48;;;;;;;12.43;7.18;;;15.30;92.50;;;;;;5052530;28;20059;-71
2023/04/09 06:31:52;;;;;;;7.65;5.70;;;15.60;92.50;;;;;;5052808;28;20416;-71
2023/04/09 06:34:56;;;;;;;11.68;6.60;;;15.80;91.90;;;;;;5052741;28;20639;-71
2023/04/09 06:38:00;;;;;;;9.07;5.50;;;15.70;92.20;;;;;;5052525;28;20067;-71
2023/04/09 06:41:07;;;;;;;11.18;7.65;;;15.90;92.10;;;;;;5051222;28;20044;-71
2023/04/09 06:44:11;;;;;;;11.23;6.40;;;16.30;92.40;;;;;;5052750;28;20056;-71
2023/04/09 06:47:14;;;;;;;11.35;7.25;;;16.70;92.10;;;;;;5052522;28;20048;-71
2023/04/09 06:50:18;;;;;;;11.98;7.53;;;16.90;91.20;;;;;;5052417;28;20052;-71
2023/04/09 06:53:22;;;;;;;12.45;6.60;;;17.00;89.00;;;;;;5052754;28;20044;-71
2023/04/09 06:56:26;;;;;;;9.38;6.40;;;16.60;90.40;;;;;;5052247;28;20047;-71
2023/04/09 06:59:30;;;;;;;12.70;7.22;;;16.70;89.50;;;;;;5052212;28;20404;-71
2023/04/09 07:02:35;;;;;;;16.33;7.43;;;16.80;89.10;;;;;;5052130;28;20048;-72
2023/04/09 07:05:39;;;;;;;9.95;6.80;;;17.00;89.80;;;;;;5051758;28;20048;-71
2023/04/09 07:08:43;;;;;;;10.05;7.00;;;17.10;90.10;;;;;;5051626;28;20048;-71
2023/04/09 07:11:47;;;;;;;10.95;7.00;;;16.90;88.50;;;;;;5051952;28;20048;-72
2023/04/09 07:14:51;;;;;;;8.43;5.32;;;17.20;88.90;;;;;;5051818;28;20040;-72
2023/04/09 07:17:56;;;;;;;9.77;6.05;;;17.40;87.20;;;;;;5051625;28;20480;-71
2023/04/09 07:21:00;;;;;;;5.63;4.32;;;17.50;87.90;;;;;;5051578;28;20229;-72
2023/04/09 07:24:04;;;;;;;6.25;3.60;;;17.80;85.40;;;;;;5051391;28;20044;-71
2023/04/09 07:27:09;;;;;;;8.48;4.35;;;18.00;83.90;;;;;;5050980;28;20056;-71
2023/04/09 07:30:13;;;;;;;9.73;2.67;;;17.80;83.20;;;;;;5049666;28;20056;-71
2023/04/09 07:33:17;;;;;;;4.93;2.63;;;17.60;84.30;;;;;;5048581;28;20669;-71
2023/04/09 07:36:21;;;;;;;3.53;1.80;;;17.40;82.80;;;;;;5049940;28;20051;-71
2023/04/09 07:39:25;;;;;;;2.35;1.23;;;17.20;83.10;;;;;;5050501;28;20051;-71
2023/04/09 07:42:29;;;;;;;2.97;1.98;;;17.20;80.60;;;;;;5050827;28;20429;-71
2023/04/09 07:45:34;;;;;;;7.07;1.75;;;17.00;81.20;;;;;;5051264;28;20472;-71
2023/04/09 07:48:37;;;;;;;2.17;1.00;;;17.00;81.80;;;;;;5050894;28;20044;-71
2023/04/09 07:51:41;;;;;;;1.17;0.93;;;17.10;80.60;;;;;;5050883;28;20043;-71
2023/04/09 07:54:45;;;;;;;9.15;1.50;;;17.10;79.40;;;;;;5050952;28;20055;-71
2023/04/09 07:57:50;;;;;;;1.10;0.70;;;17.10;81.10;;;;;;5051373;28;20044;-71
2023/04/09 08:00:54;;;;;;;1.83;1.13;;;17.20;80.00;;;;;;5051076;28;20409;-71
2023/04/09 08:03:58;;;;;;;4.25;1.75;;;17.50;78.00;;;;;;5049989;28;20047;-71
2023/04/09 08:07:02;;;;;;;16.65;2.25;;;17.40;78.80;;;;;;5050690;28;20063;-72
2023/04/09 08:10:07;;;;;;;8.55;1.88;;;17.30;78.20;;;;;;5051060;28;20055;-70
2023/04/09 08:13:11;;;;;;;5.72;1.80;;;17.30;78.80;;;;;;5050798;28;20040;-71
2023/04/09 08:16:15;;;;;;;1.75;1.10;;;16.80;79.60;;;;;;5049931;28;20051;-70
2023/04/09 08:19:19;;;;;;;1.73;1.20;;;16.50;79.40;;;;;;5050003;28;20056;-71
2023/04/09 08:22:23;;;;;;;3.78;1.20;;;16.20;80.90;;;;;;5049840;28;20044;-71
2023/04/09 08:25:27;;;;;;;2.72;1.38;;;16.10;82.30;;;;;;5050159;28;20056;-71
2023/04/09 08:28:31;;;;;;;3.83;1.45;;;15.80;83.30;;;;;;5049645;28;20408;-71
2023/04/09 08:31:36;;;;;;;3.45;1.23;;;15.90;83.10;;;;;;5050671;28;20044;-71
2023/04/09 08:34:40;;;;;;;3.70;1.58;;;15.60;84.30;;;;;;5050517;28;20052;-71
2023/04/09 08:37:44;;;;;;;2.45;1.63;;;15.80;82.50;;;;;;5050778;28;20052;-71
2023/04/09 08:40:48;;;;;;;2.28;1.27;;;16.20;81.30;;;;;;5050455;28;20048;-72
2023/04/09 08:43:52;;;;;;;3.03;1.83;;;16.30;81.80;;;;;;5050403;28;20500;-71
2023/04/09 08:46:58;;;;;;;2.60;1.83;;;16.50;82.00;;;;;;5050237;28;20040;-71
2023/04/09 08:50:02;;;;;;;4.53;2.35;;;16.20;80.80;;;;;;5049769;28;20056;-71
2023/04/09 08:53:07;;;;;;;2.33;1.45;;;16.30;81.00;;;;;;5049179;28;20040;-70
2023/04/09 08:56:12;;;;;;;3.53;2.05;;;16.10;80.90;;;;;;5050537;28;20044;-72
2023/04/09 08:59:17;;;;;;;3.08;1.90;;;15.80;81.90;;;;;;5050622;28;20040;-71
2023/04/09 09:02:22;;;;;;;3.90;2.13;;;15.70;81.50;;;;;;5050545;28;20393;-71
2023/04/09 09:05:41;;;;;;;3.00;2.00;;;15.80;81.90;;;;;;5053819;28;20056;-71
2023/04/09 09:09:08;;;;;;;4.68;2.75;;;15.80;82.50;;;;;;5052879;28;20428;-71
2023/04/09 09:12:32;;;;;;;2.55;1.95;;;15.80;81.60;;;;;;5053460;28;20064;-71
2023/04/09 09:15:36;;;;;;;6.30;3.90;;;15.80;81.40;;;;;;5053840;28;20048;-71
2023/04/09 09:18:42;;;;;;;3.38;2.15;;;16.30;81.10;;;;;;5053773;28;20044;-71
2023/04/09 09:21:58;;;;;;;2.10;1.60;;;16.40;80.00;;;;;;5053676;28;20043;-71
2023/04/09 09:25:11;;;;;;;5.43;2.65;;;16.30;81.10;;;;;;5053196;28;20040;-72
2023/04/09 09:28:15;;;;;;;8.55;4.82;;;16.20;82.20;;;;;;5053912;28;20064;-71
2023/04/09 09:31:21;;;;;;;16.05;8.77;;;15.90;81.60;;;;;;5053845;28;20040;-72
2023/04/09 09:34:24;;;;;;;3.65;2.65;;;15.60;82.00;;;;;;5053583;28;20044;-72
2023/04/09 09:37:30;;;;;;;9.23;5.40;;;15.60;82.20;;;;;;5052727;28;20052;-72
2023/04/09 09:40:35;;;;;;;7.55;3.53;;;15.70;83.90;;;;;;5053541;28;20048;-72
2023/04/09 09:43:42;;;;;;;6.22;2.70;;;15.90;84.00;;;;;;5053408;28;20044;-72
2023/04/09 09:46:46;;;;;;;6.57;3.42;;;;;;;;;;5053320;28;20048;-71
2023/04/09 09:49:51;;;;;;;8.90;3.88;;;16.00;82.70;;;;;;5053133;28;20048;-71
2023/04/09 09:53:02;;;;;;;3.03;1.83;;;16.20;81.60;;;;;;5052907;28;20052;-72
2023/04/09 09:56:09;;;;;;;101.00;47.65;;;16.00;81.60;;;;;;5052929;28;20044;-71
2023/04/09 09:59:22;;;;;;;5.28;3.40;;;16.10;82.20;;;;;;5053253;28;20044;-71
2023/04/09 10:02:31;;;;;;;67.78;28.20;;;16.20;81.90;;;;;;5052838;28;20052;-71
2023/04/09 10:05:38;;;;;;;9.88;4.88;;;15.90;81.30;;;;;;5052718;28;20385;-72
2023/04/09 10:08:42;;;;;;;43.42;25.02;;;15.70;81.10;;;;;;5052853;28;20064;-71
2023/04/09 10:11:48;;;;;;;45.97;26.50;;;15.60;82.00;;;;;;5052611;28;20635;-72
2023/04/09 10:14:54;;;;;;;26.23;15.43;;;15.40;82.20;;;;;;5052450;28;20040;-71
2023/04/09 10:17:59;;;;;;;55.28;32.97;;;15.40;83.00;;;;;;5052570;28;20044;-72
2023/04/09 10:21:09;;;;;;;13.32;9.05;;;15.40;83.40;;;;;;5052742;28;20499;-72
2023/04/09 10:24:14;;;;;;;4.60;2.40;;;15.90;81.50;;;;;;5052780;28;20055;-71
2023/04/09 10:27:19;;;;;;;10.35;3.58;;;15.90;81.80;;;;;;5052784;28;20073;-71
2023/04/09 10:30:33;;;;;;;5.47;2.47;;;16.10;81.40;;;;;;5052600;28;20068;-71
2023/04/09 10:33:38;;;;;;;6.63;2.80;;;16.00;81.50;;;;;;5052308;28;20048;-72
2023/04/09 10:36:43;;;;;;;7.93;3.00;;;15.80;82.50;;;;;;5052264;28;20047;-71
2023/04/09 10:39:49;;;;;;;2.88;2.05;;;15.90;83.00;;;;;;5052218;28;20048;-70
2023/04/09 10:42:58;;;;;;;4.00;2.28;;;15.80;81.80;;;;;;5052262;28;20056;-71
2023/04/09 10:46:05;;;;;;;6.30;2.10;;;15.50;80.90;;;;;;5052414;28;20043;-71
2023/04/09 10:49:15;;;;;;;2.80;2.00;;;;;;;;;;5052078;28;20409;-72
2023/04/09 10:52:29;;;;;;;2.35;1.95;;;15.00;81.30;;;;;;5052231;28;20032;-71
2023/04/09 10:55:38;;;;;;;4.55;2.15;;;15.60;82.70;;;;;;5052113;28;20052;-71
2023/04/09 10:58:42;;;;;;;3.20;1.90;;;15.50;81.90;;;;;;5051770;28;20040;-71
2023/04/09 11:01:53;;;;;;;4.07;2.03;;;15.70;82.90;;;;;;5051852;28;20047;-72
2023/04/09 11:05:16;;;;;;;5.15;3.30;;;16.00;81.60;;;;;;5051703;28;20036;-72
2023/04/09 11:08:20;;;;;;;2.78;1.90;;;16.10;80.70;;;;;;5051754;28;20052;-72
2023/04/09 11:11:26;;;;;;;6.07;1.80;;;16.40;80.10;;;;;;5050900;28;20044;-72
2023/04/09 11:14:32;;;;;;;6.28;2.55;;;16.40;80.80;;;;;;5050833;28;20052;-72
2023/04/09 11:17:38;;;;;;;7.30;4.07;;;16.50;79.80;;;;;;5051628;28;20496;-72
2023/04/09 11:20:42;;;;;;;5.18;3.45;;;16.50;78.90;;;;;;5050666;28;20048;-72
2023/04/09 11:23:51;;;;;;;2.97;2.65;;;16.60;78.00;;;;;;5051294;28;20044;-72
2023/04/09 11:26:55;;;;;;;4.07;2.78;;;16.50;79.10;;;;;;5050919;28;20374;-72
2023/04/09 11:29:59;;;;;;;4.28;3.00;;;16.50;78.70;;;;;;5050387;28;20059;-72
2023/04/09 11:33:03;;;;;;;5.20;3.00;;;16.60;79.40;;;;;;5051134;28;20091;-72
2023/04/09 11:36:07;;;;;;;5.45;2.55;;;16.90;78.40;;;;;;5051162;28;20056;-72
2023/04/09 11:39:11;;;;;;;9.27;5.43;;;16.90;79.00;;;;;;5051260;28;20401;-72
2023/04/09 11:42:15;;;;;;;8.05;4.93;;;16.90;77.40;;;;;;5050694;28;20500;-72
2023/04/09 11:45:23;;;;;;;21.55;14.13;;;16.80;77.10;;;;;;5050400;28;20047;-72
2023/04/09 11:48:27;;;;;;;5.75;2.78;;;16.60;76.60;;;;;;5050978;28;20048;-72
2023/04/09 11:51:31;;;;;;;4.97;2.88;;;16.40;76.70;;;;;;5051152;28;20052;-72
2023/04/09 11:54:35;;;;;;;6.18;4.25;;;15.50;76.70;;;;;;5051198;28;20533;-72
2023/04/09 11:57:47;;;;;;;14.23;8.07;;;16.40;76.80;;;;;;5051481;28;20052;-72
2023/04/09 12:00:57;;;;;;;9.10;4.43;;;16.60;76.10;;;;;;5051241;28;20044;-72
2023/04/09 12:04:01;;;;;;;4.30;3.20;;;16.60;76.30;;;;;;5050316;28;20393;-71
2023/04/09 12:07:08;;;;;;;22.83;14.02;;;16.70;75.20;;;;;;5051123;28;20503;-72
2023/04/09 12:10:12;;;;;;;18.40;10.82;;;16.80;75.50;;;;;;5050641;28;20515;-72
2023/04/09 12:13:16;;;;;;;6.30;3.13;;;16.80;75.30;;;;;;5049687;28;20365;-72
2023/04/09 12:16:20;;;;;;;8.40;2.55;;;16.40;74.70;;;;;;5049981;28;20056;-72
2023/04/09 12:19:25;;;;;;;8.40;5.00;;;16.10;77.30;;;;;;5051166;28;20056;-72
2023/04/09 12:22:29;;;;;;;3.60;2.33;;;13.00;76.50;;;;;;5050037;28;20048;-72
2023/04/09 12:25:38;;;;;;;4.30;3.30;;;13.50;77.20;;;;;;5050592;28;20044;-72
2023/04/09 12:28:41;;;;;;;4.78;3.17;;;16.20;79.70;;;;;;5049979;28;20524;-71
2023/04/09 12:31:46;;;;;;;4.13;2.58;;;16.00;77.80;;;;;;5050596;28;20141;-72
2023/04/09 12:34:50;;;;;;;3.95;2.10;;;15.80;77.80;;;;;;5050691;28;20052;-72
2023/04/09 12:37:54;;;;;;;2.45;1.65;;;16.10;77.80;;;;;;5051912;28;20597;-72
2023/04/09 12:40:58;;;;;;;3.30;1.95;;;16.10;77.60;;;;;;5053708;28;20056;-72
2023/04/09 12:44:02;;;;;;;3.10;2.10;;;14.50;78.30;;;;;;5054460;28;20036;-71
2023/04/09 12:47:06;;;;;;;3.45;2.78;;;16.50;78.70;;;;;;5054688;28;20519;-72
2023/04/09 12:50:11;;;;;;;3.45;2.67;;;16.30;78.30;;;;;;5054303;28;20056;-72
2023/04/09 12:53:15;;;;;;;4.45;2.22;;;16.30;77.20;;;;;;5053289;28;20032;-72
2023/04/09 12:56:19;;;;;;;5.05;1.95;;;;;;;;;;5054058;28;20044;-72
2023/04/09 12:59:23;;;;;;;2.88;1.95;;;16.20;77.80;;;;;;5054117;28;20370;-72
2023/04/09 13:02:27;;;;;;;2.83;1.70;;;16.10;77.20;;;;;;5054312;28;20401;-71
2023/04/09 13:05:34;;;;;;;2.90;2.00;;;16.20;77.40;;;;;;5053980;28;20487;-72
2023/04/09 13:08:38;;;;;;;3.38;1.92;;;13.90;76.00;;;;;;5054143;28;20040;-72
2023/04/09 13:11:42;;;;;;;2.00;1.80;;;16.00;77.90;;;;;;5054209;28;20048;-72
2023/04/09 13:14:47;;;;;;;2.67;2.35;;;15.80;77.00;;;;;;5054135;28;20504;-72
2023/04/09 13:17:51;;;;;;;2.65;1.83;;;16.00;76.10;;;;;;5053959;28;20048;-71
2023/04/09 13:20:55;;;;;;;3.03;2.53;;;19.30;78.40;;;;;;5054215;28;20048;-72
2023/04/09 13:23:59;;;;;;;2.78;2.20;;;16.10;77.10;;;;;;5053803;28;20052;-72
2023/04/09 13:27:04;;;;;;;1.95;1.25;;;16.30;78.10;;;;;;5054118;28;20052;-72
2023/04/09 13:30:09;;;;;;;4.60;2.10;;;14.80;74.80;;;;;;5053782;28;20056;-72
2023/04/09 13:33:13;;;;;;;4.43;2.40;;;;;;;;;;5053773;28;20039;-72
2023/04/09 13:36:17;;;;;;;2.53;2.17;;;16.20;76.70;;;;;;5053848;28;20045;-72
2023/04/09 13:39:21;;;;;;;3.95;2.45;;;;;;;;;;5053391;28;20405;-72
2023/04/09 13:42:26;;;;;;;5.93;2.00;;;16.00;76.30;;;;;;5053299;28;20041;-72
2023/04/09 13:45:30;;;;;;;2.80;2.08;;;16.30;75.60;;;;;;5053654;28;20054;-72
2023/04/09 13:48:34;;;;;;;3.50;2.28;;;16.10;76.60;;;;;;5052841;28;20048;-71
2023/04/09 13:51:38;;;;;;;2.35;2.10;;;15.20;75.80;;;;;;5053277;28;20055;-72
2023/04/09 13:54:42;;;;;;;3.50;2.50;;;15.70;76.90;;;;;;5053156;28;20619;-72
2023/04/09 13:57:46;;;;;;;2.88;2.25;;;16.40;75.90;;;;;;5053371;28;20048;-72
2023/04/09 14:00:51;;;;;;;4.15;2.20;;;15.80;75.50;;;;;;5053224;28;20040;-72
2023/04/09 14:03:55;;;;;;;3.33;2.53;;;15.80;74.90;;;;;;5052980;28;20075;-72
2023/04/09 14:06:59;;;;;;;2.88;2.58;;;;;;;;;;5053321;28;20048;-71
2023/04/09 14:10:04;;;;;;;7.30;2.63;;;16.20;75.10;;;;;;5052161;28;20048;-71
2023/04/09 14:13:10;;;;;;;4.72;2.60;;;17.00;76.00;;;;;;5052329;28;20040;-72
2023/04/09 14:16:15;;;;;;;3.17;2.20;;;15.90;74.70;;;;;;5052938;28;20044;-72
2023/04/09 14:19:18;;;;;;;2.63;2.35;;;16.10;74.70;;;;;;5053095;28;20051;-72
2023/04/09 14:22:22;;;;;;;4.82;2.53;;;16.00;75.10;;;;;;5052941;28;20118;-71
2023/04/09 14:25:27;;;;;;;2.38;2.03;;;16.00;73.90;;;;;;5052403;28;20048;-72
2023/04/09 14:28:32;;;;;;;2.63;2.25;;;15.80;72.60;;;;;;5052446;28;20047;-72
2023/04/09 14:31:36;;;;;;;3.17;2.20;;;15.70;72.30;;;;;;5051708;28;20044;-71
2023/04/09 14:34:40;;;;;;;4.00;2.45;;;15.70;73.60;;;;;;5052331;28;20040;-71
2023/04/09 14:37:45;;;;;;;2.83;2.47;;;16.70;72.90;;;;;;5052340;28;20522;-72
2023/04/09 14:40:50;;;;;;;4.30;2.72;;;16.30;71.40;;;;;;5052538;28;20052;-72
2023/04/09 14:43:54;;;;;;;5.15;2.50;;;19.00;74.10;;;;;;5051621;28;20048;-72
2023/04/09 14:46:58;;;;;;;3.10;2.30;;;15.90;73.20;;;;;;5051436;28;20044;-72
2023/04/09 14:50:02;;;;;;;4.32;2.10;;;16.80;73.50;;;;;;5051349;28;20056;-71
2023/04/09 14:53:07;;;;;;;3.58;2.13;;;;;;;;;;5051963;28;20040;-72
2023/04/09 14:56:11;;;;;;;5.30;2.75;;;;;;;;;;5052544;28;20041;-72
2023/04/09 14:59:15;;;;;;;5.40;2.85;;;;;;;;;;5052302;28;20036;-72
2023/04/09 15:02:20;;;;;;;3.70;2.30;;;16.10;72.60;;;;;;5051344;28;20049;-71
2023/04/09 15:05:24;;;;;;;3.00;2.22;;;15.70;71.30;;;;;;5051915;28;20492;-72
2023/04/09 15:08:29;;;;;;;3.35;2.20;;;;;;;;;;5050792;28;20044;-71
2023/04/09 15:11:33;;;;;;;5.07;2.53;;;;;;;;;;5051793;28;20037;-72
2023/04/09 15:14:37;;;;;;;4.10;2.70;;;15.60;71.50;;;;;;5051831;28;20041;-71
2023/04/09 15:17:41;;;;;;;3.17;2.22;;;17.10;72.50;;;;;;5039435;28;20055;-72
2023/04/09 15:20:45;;;;;;;3.83;2.08;;;15.00;71.00;;;;;;5051756;28;20151;-71
2023/04/09 15:23:50;;;;;;;3.45;2.22;;;16.40;72.70;;;;;;5051657;28;20048;-71
2023/04/09 15:26:55;;;;;;;4.55;2.30;;;16.00;71.70;;;;;;5039091;28;20179;-71
2023/04/09 15:29:59;;;;;;;4.10;2.20;;;15.60;72.30;;;;;;5051520;28;20512;-71
2023/04/09 15:33:06;;;;;;;4.20;2.70;;;16.80;73.20;;;;;;5051251;28;20040;-72
2023/04/09 15:36:11;;;;;;;4.85;2.70;;;17.00;75.20;;;;;;5050626;28;20040;-70
2023/04/09 15:39:14;;;;;;;4.18;2.50;;;15.60;73.00;;;;;;5039113;28;20036;-71
2023/04/09 15:42:21;;;;;;;4.40;3.00;;;;;;;;;;5051372;28;20040;-72
2023/04/09 15:45:25;;;;;;;2.78;2.53;;;15.40;73.40;;;;;;5050932;28;20044;-71
2023/04/09 15:48:29;;;;;;;4.20;2.85;;;15.40;74.10;;;;;;5051207;28;20043;-71
2023/04/09 15:51:33;;;;;;;4.55;2.65;;;15.50;74.30;;;;;;5050960;28;20052;-73
2023/04/09 15:54:38;;;;;;;4.22;2.95;;;15.40;76.10;;;;;;5051104;28;20044;-73
2023/04/09 15:57:45;;;;;;;6.93;2.97;;;15.50;75.90;;;;;;5050783;28;20044;-71
2023/04/09 16:00:50;;;;;;;3.67;2.95;;;15.60;74.80;;;;;;5051132;28;20039;-71
2023/04/09 16:03:54;;;;;;;4.05;3.33;;;15.70;74.00;;;;;;5051063;28;20048;-72
2023/04/09 16:06:58;;;;;;;4.88;3.20;;;15.80;74.00;;;;;;5050910;28;20040;-72
2023/04/09 16:10:03;;;;;;;8.60;5.20;;;15.60;75.70;;;;;;5038601;28;20124;-72
2023/04/09 16:13:07;;;;;;;4.68;3.53;;;15.50;76.10;;;;;;5050015;28;20047;-71